Time;durP1;ratioP1;P1;durP2;ratioP2;P2;SDS_P1;SDS_P2;PMS_P1;PMS_P2;Temp;Humidity;BMP_temperature;BMP_pressure;BME280_temperature;BME280_humidity;BME280_pressure;Samples;Min_cycle;Max_cycle;Signal;HPM_P1;HPM_P2
2022/08/04 00:00:21;;;;;;;7.70;2.42;;;;;;;29.28;44.15;101353.88;5010113;28;20025;-70
2022/08/04 00:02:57;;;;;;;15.10;3.15;;;;;;;29.15;44.65;101344.69;5009472;28;20135;-70
2022/08/04 00:05:29;;;;;;;9.93;3.38;;;;;;;29.25;44.49;101349.00;5007053;28;20688;-69
2022/08/04 00:08:28;;;;;;;13.55;2.75;;;;;;;29.16;44.36;101345.50;4998426;28;20553;-70
2022/08/04 00:10:57;;;;;;;11.73;3.03;;;;;;;29.17;44.43;101344.38;5004500;28;20053;-68
2022/08/04 00:13:27;;;;;;;19.23;3.53;;;;;;;29.19;44.49;101340.09;5006816;28;20028;-70
2022/08/04 00:16:02;;;;;;;10.27;3.85;;;;;;;29.01;44.36;101335.78;5007451;28;20040;-68
2022/08/04 00:18:41;;;;;;;10.23;2.65;;;;;;;29.08;45.19;101338.84;5009590;28;20524;-68
2022/08/04 00:21:10;;;;;;;12.43;3.42;;;;;;;29.13;44.30;101335.91;5002172;28;20054;-68
2022/08/04 00:23:38;;;;;;;17.47;3.70;;;;;;;28.97;44.79;101331.28;5004288;28;20055;-68
2022/08/04 00:26:03;;;;;;;11.80;3.20;;;;;;;28.91;45.48;101335.41;5009480;28;20083;-68
2022/08/04 00:28:29;;;;;;;12.02;2.92;;;;;;;29.03;44.87;101329.94;5009854;28;20438;-71
2022/08/04 00:30:54;;;;;;;14.15;3.47;;;;;;;29.02;44.81;101326.34;5009192;28;20493;-70
2022/08/04 00:33:21;;;;;;;7.68;3.10;;;;;;;29.04;44.88;101318.53;5009277;28;20080;-67
2022/08/04 00:35:48;;;;;;;13.70;4.00;;;;;;;28.93;45.29;101322.84;5008752;28;20045;-70
2022/08/04 00:38:17;;;;;;;15.48;4.18;;;;;;;28.88;44.73;101319.44;5003418;28;20069;-70
2022/08/04 00:40:54;;;;;;;9.73;4.43;;;;;;;28.80;45.51;101315.59;5009073;28;20117;-70
2022/08/04 00:43:32;;;;;;;15.52;4.18;;;;;;;28.83;45.63;101316.91;5005646;28;20041;-69
2022/08/04 00:46:35;;;;;;;8.98;3.55;;;;;;;28.79;45.30;101315.94;5004513;28;20037;-68
2022/08/04 00:49:16;;;;;;;12.82;4.10;;;;;;;28.62;45.99;101316.84;5008673;28;20037;-68
2022/08/04 00:52:14;;;;;;;9.77;4.35;;;;;;;28.82;45.28;101321.63;5005580;28;20030;-69
2022/08/04 00:55:26;;;;;;;12.40;4.47;;;;;;;28.70;45.89;101316.00;5008585;28;20632;-68
2022/08/04 00:58:21;;;;;;;11.80;3.78;;;;;;;28.67;46.13;101308.38;5005846;28;20088;-69
2022/08/04 01:01:05;;;;;;;10.20;4.03;;;;;;;28.64;46.06;101303.50;5006744;28;20046;-69
2022/08/04 01:03:57;;;;;;;14.40;4.45;;;;;;;28.56;46.34;101305.16;5007977;28;20065;-69
2022/08/04 01:06:37;;;;;;;14.32;5.53;;;;;;;28.57;45.93;101304.03;5021072;28;20046;-69
2022/08/04 01:09:23;;;;;;;;;;;;;;;28.60;46.46;101299.78;4997630;28;20041;-70
2022/08/04 01:12:29;;;;;;;11.13;4.95;;;;;;;28.59;46.22;101293.47;5006571;28;19925;-69
2022/08/04 01:15:07;;;;;;;17.35;5.72;;;;;;;28.50;46.55;101300.94;4983205;28;20035;-70
2022/08/04 01:17:35;;;;;;;15.70;5.13;;;;;;;28.47;46.20;101296.09;4985667;28;20042;-68
2022/08/04 01:20:07;;;;;;;17.00;4.95;;;;;;;28.53;46.32;101291.19;4984255;28;20503;-69
2022/08/04 01:22:32;;;;;;;11.52;4.90;;;;;;;28.43;46.54;101295.13;4986348;28;20038;-71
2022/08/04 01:25:06;;;;;;;7.55;4.32;;;;;;;28.48;46.75;101289.41;4986242;28;20061;-69
2022/08/04 01:27:47;;;;;;;16.80;4.93;;;;;;;28.51;46.35;101288.75;4985891;28;20043;-69
2022/08/04 01:30:13;;;;;;;15.40;4.70;;;;;;;28.42;46.62;101289.94;4985976;28;20038;-69
2022/08/04 01:32:44;;;;;;;12.40;5.75;;;;;;;28.49;46.50;101282.75;4986187;28;20172;-69
2022/08/04 01:35:26;;;;;;;10.70;4.50;;;;;;;28.48;46.57;101280.31;4987007;28;20129;-69
2022/08/04 01:38:20;;;;;;;9.70;5.50;;;;;;;28.39;46.92;101288.66;4990207;28;20061;-69
2022/08/04 01:40:50;;;;;;;9.18;4.88;;;;;;;28.40;47.05;101283.94;4970738;28;20046;-69
2022/08/04 01:43:16;;;;;;;9.52;4.25;;;;;;;28.38;46.51;101280.69;4971382;28;20117;-74
2022/08/04 01:45:55;;;;;;;14.52;4.38;;;;;;;28.28;46.89;101281.06;4972138;28;20039;-74
2022/08/04 01:48:44;;;;;;;17.27;4.95;;;;;;;28.36;46.72;101277.47;4972122;28;20074;-74
2022/08/04 01:51:10;;;;;;;8.38;4.25;;;;;;;28.33;46.95;101276.16;4972573;28;20042;-74
2022/08/04 01:53:38;;;;;;;7.60;4.50;;;;;;;28.28;46.98;101272.78;4964791;28;20035;-73
2022/08/04 01:56:05;;;;;;;9.38;4.20;;;;;;;28.19;47.60;101274.75;4953359;28;20061;-73
2022/08/04 01:58:33;;;;;;;15.15;4.70;;;;;;;28.21;47.54;101267.75;4954003;29;20130;-74
2022/08/04 02:01:03;;;;;;;20.02;4.40;;;;;;;28.01;48.26;101257.44;4952832;28;20109;-74
2022/08/04 02:03:29;;;;;;;12.95;4.10;;;;;;;27.98;48.34;101254.53;4952714;28;20069;-74
2022/08/04 02:06:07;;;;;;;7.22;4.05;;;;;;;27.94;48.31;101253.56;4952477;28;20062;-73
2022/08/04 02:08:50;;;;;;;8.82;3.70;;;;;;;27.95;47.92;101255.22;4952687;28;20042;-74
2022/08/04 02:11:20;;;;;;;10.82;4.47;;;;;;;27.90;48.18;101256.16;4952357;28;20050;-74
2022/08/04 02:14:11;;;;;;;10.45;4.05;;;;;;;27.72;48.79;101249.06;4952768;29;20027;-74
2022/08/04 02:16:48;;;;;;;13.20;3.95;;;;;;;27.78;48.58;101248.59;4950438;29;20075;-74
2022/08/04 02:19:34;;;;;;;7.35;4.53;;;;;;;27.68;49.50;101251.69;4972883;28;20039;-73
2022/08/04 02:22:12;;;;;;;15.48;4.57;;;;;;;27.75;49.43;101246.47;4988177;28;20382;-74
2022/08/04 02:24:44;;;;;;;9.02;4.13;;;;;;;27.76;48.87;101248.09;4990578;28;20117;-74
2022/08/04 02:27:12;;;;;;;10.77;4.15;;;;;;;27.57;49.26;101236.63;4992331;28;20343;-74
2022/08/04 02:30:04;;;;;;;11.70;5.05;;;;;;;27.59;49.07;101239.88;4992383;28;20073;-74
2022/08/04 02:32:38;;;;;;;9.13;4.18;;;;;;;27.65;49.10;101243.25;4992166;28;20027;-73
2022/08/04 02:35:14;;;;;;;9.48;4.85;;;;;;;27.68;48.77;101232.38;4992438;28;20101;-73
2022/08/04 02:37:46;;;;;;;11.85;5.00;;;;;;;27.52;49.38;101241.50;4992908;28;20036;-73
2022/08/04 02:40:12;;;;;;;10.68;5.13;;;;;;;27.55;49.94;101247.19;4992068;28;20513;-73
2022/08/04 02:42:37;;;;;;;11.77;4.68;;;;;;;27.55;49.64;101240.84;4992175;28;20166;-73
2022/08/04 02:45:05;;;;;;;10.88;4.75;;;;;;;27.55;49.25;101244.44;4991966;28;20173;-73
2022/08/04 02:47:32;;;;;;;13.85;4.20;;;;;;;27.54;49.68;101239.22;4991106;28;20520;-73
2022/08/04 02:49:57;;;;;;;12.20;5.32;;;;;;;27.37;50.42;101237.31;4991895;28;20026;-73
2022/08/04 02:52:24;;;;;;;11.30;4.60;;;;;;;27.44;50.21;101237.63;4992509;28;20026;-73
2022/08/04 02:54:52;;;;;;;10.43;4.78;;;;;;;27.42;50.18;101230.81;4992273;28;20395;-72
2022/08/04 02:57:22;;;;;;;11.35;4.43;;;;;;;27.42;50.05;101234.38;4990928;28;20030;-73
2022/08/04 02:59:56;;;;;;;11.25;5.57;;;;;;;27.43;49.91;101233.25;4991896;28;20108;-72
2022/08/04 03:02:32;;;;;;;6.13;3.60;;;;;;;27.53;49.98;101226.56;4991883;28;20066;-72
2022/08/04 03:05:06;;;;;;;13.13;5.28;;;;;;;27.42;50.28;101231.63;4991977;28;20030;-72
2022/08/04 03:07:40;;;;;;;14.02;4.38;;;;;;;27.41;49.76;101215.38;4992343;28;20042;-73
2022/08/04 03:10:25;;;;;;;13.23;4.82;;;;;;;27.42;49.88;101219.78;4991989;28;20042;-73
2022/08/04 03:13:21;;;;;;;9.88;4.80;;;;;;;27.41;50.18;101213.44;4991965;28;20134;-73
2022/08/04 03:16:29;;;;;;;8.60;4.80;;;;;;;27.44;50.09;101223.81;4991179;28;20065;-72
2022/08/04 03:19:00;;;;;;;7.93;5.05;;;;;;;27.39;49.76;101207.44;4968996;28;20067;-73
2022/08/04 03:21:45;;;;;;;10.90;4.75;;;;;;;27.36;50.21;101210.06;4969883;28;20042;-73
2022/08/04 03:24:42;;;;;;;19.52;6.53;;;;;;;27.36;50.03;101215.56;4969855;28;20050;-73
2022/08/04 03:27:36;;;;;;;14.68;5.60;;;;;;;27.26;50.37;101215.88;4969960;28;20043;-73
2022/08/04 03:30:40;;;;;;;12.52;5.38;;;;;;;27.31;50.27;101212.94;4970287;28;20459;-73
2022/08/04 03:33:43;;;;;;;12.88;5.72;;;;;;;27.13;50.87;101214.09;4912485;29;20140;-72
2022/08/04 03:36:40;;;;;;;15.27;5.53;;;;;;;27.21;50.91;101210.50;4912006;29;20044;-73
2022/08/04 03:39:13;;;;;;;15.30;5.57;;;;;;;27.22;50.98;101212.97;4911634;29;20072;-72
2022/08/04 03:42:01;;;;;;;13.88;5.03;;;;;;;27.20;50.86;101209.72;4911720;29;20051;-73
2022/08/04 03:44:54;;;;;;;9.73;4.40;;;;;;;27.04;51.79;101210.53;4911947;29;20509;-73
2022/08/04 03:47:42;;;;;;;10.13;4.78;;;;;;;27.13;51.60;101208.59;4895484;29;20033;-72
2022/08/04 03:50:30;;;;;;;7.95;5.07;;;;;;;27.12;51.54;101213.31;4863242;29;20049;-72
2022/08/04 03:53:16;;;;;;;13.00;4.97;;;;;;;26.90;51.61;101213.47;4874669;29;20037;-73
2022/08/04 03:56:03;;;;;;;9.35;5.40;;;;;;;27.10;51.59;101217.53;4874440;29;20447;-74
2022/08/04 03:58:31;;;;;;;13.88;5.65;;;;;;;27.19;51.25;101212.78;4873821;29;20514;-74
2022/08/04 04:01:11;;;;;;;11.23;6.40;;;;;;;27.03;51.97;101215.25;4872498;29;20402;-73
2022/08/04 04:03:48;;;;;;;8.73;5.45;;;;;;;27.15;51.15;101211.81;4872814;29;20049;-73
2022/08/04 04:06:29;;;;;;;10.43;5.55;;;;;;;27.03;51.20;101211.69;4873044;29;20707;-74
2022/08/04 04:09:06;;;;;;;;;;;;;;;27.14;50.98;101207.47;4886792;29;20032;-74
2022/08/04 04:11:40;;;;;;;11.05;5.22;;;;;;;26.91;51.55;101215.09;4929462;29;19918;-74
2022/08/04 04:14:32;;;;;;;10.65;5.72;;;;;;;26.62;52.32;101212.94;4929546;29;20044;-72
2022/08/04 04:17:43;;;;;;;10.55;6.30;;;;;;;26.67;52.32;101212.78;4945933;28;20583;-72
2022/08/04 04:20:56;;;;;;;12.98;7.00;;;;;;;26.52;53.33;101210.50;4929070;29;20036;-72
2022/08/04 04:23:48;;;;;;;11.20;5.82;;;;;;;26.70;52.83;101212.19;4877904;29;20689;-72
2022/08/04 04:26:47;;;;;;;10.57;6.15;;;;;;;26.75;52.50;101220.28;4894241;29;20047;-73
2022/08/04 04:29:42;;;;;;;9.52;6.32;;;;;;;27.25;51.11;101217.81;4910521;29;20040;-72
2022/08/04 04:32:33;;;;;;;9.45;6.15;;;;;;;27.33;50.95;101217.03;4910579;29;20040;-73
2022/08/04 04:35:07;;;;;;;15.23;6.47;;;;;;;27.35;50.73;101213.94;4910678;29;20378;-73
2022/08/04 04:37:53;;;;;;;13.93;6.60;;;;;;;27.57;49.77;101222.00;4910648;29;20055;-73
2022/08/04 04:40:32;;;;;;;16.85;6.47;;;;;;;27.37;50.82;101218.00;4910870;29;20052;-73
2022/08/04 04:43:31;;;;;;;11.80;6.85;;;;;;;27.56;50.36;101215.66;4898612;29;20070;-73
2022/08/04 04:46:12;;;;;;;10.88;6.38;;;;;;;27.53;50.32;101216.34;4892152;29;20704;-73
2022/08/04 04:48:52;;;;;;;9.73;6.38;;;;;;;27.50;50.37;101229.97;4891825;29;20056;-73
2022/08/04 04:51:35;;;;;;;16.15;7.55;;;;;;;27.63;49.75;101232.56;4891776;29;20047;-73
2022/08/04 04:54:28;;;;;;;17.48;7.43;;;;;;;27.65;50.25;101230.28;4925169;28;20037;-73
2022/08/04 04:57:08;;;;;;;13.57;6.90;;;;;;;27.69;50.36;101236.72;4978576;28;20089;-73
2022/08/04 04:59:36;;;;;;;14.15;6.80;;;;;;;27.66;50.49;101236.59;4990113;28;20066;-73
2022/08/04 05:02:14;;;;;;;11.57;6.55;;;;;;;27.82;50.53;101234.91;4990297;28;20027;-73
2022/08/04 05:05:13;;;;;;;21.52;7.38;;;;;;;27.75;49.96;101232.66;4990213;28;20030;-73
2022/08/04 05:07:51;;;;;;;12.95;7.20;;;;;;;27.81;50.05;101239.63;4969524;28;20113;-73
2022/08/04 05:10:45;;;;;;;11.70;7.20;;;;;;;27.99;49.59;101240.38;4971328;28;20066;-73
2022/08/04 05:13:47;;;;;;;12.55;6.80;;;;;;;27.99;48.59;101236.84;4974013;28;20050;-74
2022/08/04 05:16:31;;;;;;;13.10;6.72;;;;;;;28.17;48.92;101247.47;4974090;28;20052;-73
2022/08/04 05:19:08;;;;;;;17.13;7.47;;;;;;;28.26;48.86;101244.66;4973250;28;20042;-72
2022/08/04 05:22:03;;;;;;;16.13;7.13;;;;;;;28.54;48.12;101248.53;4973524;28;20039;-72
2022/08/04 05:24:33;;;;;;;16.83;6.93;;;;;;;28.53;48.02;101238.63;4973196;28;20039;-72
2022/08/04 05:27:04;;;;;;;14.48;7.50;;;;;;;28.60;48.31;101239.75;4973579;28;20503;-72
2022/08/04 05:29:41;;;;;;;12.77;7.43;;;;;;;28.66;48.12;101248.66;4973407;28;20046;-73
2022/08/04 05:32:16;;;;;;;18.73;7.72;;;;;;;28.68;48.04;101246.34;4973495;28;20235;-72
2022/08/04 05:34:46;;;;;;;14.95;6.72;;;;;;;28.88;47.31;101245.56;4973613;28;20026;-72
2022/08/04 05:37:15;;;;;;;;;;;;;;;28.86;48.10;101250.63;4968818;28;20058;-72
2022/08/04 05:39:48;;;;;;;10.32;5.50;;;;;;;28.89;47.95;101251.91;4982219;28;20412;-72
2022/08/04 05:42:14;;;;;;;8.65;5.72;;;;;;;28.94;47.99;101252.50;5006377;28;21022;-72
2022/08/04 05:44:41;;;;;;;10.95;5.97;;;;;;;29.09;47.40;101249.09;5011749;28;20109;-72
2022/08/04 05:47:10;;;;;;;17.92;6.10;;;;;;;29.18;47.38;101244.34;5011991;28;20029;-73
2022/08/04 05:49:38;;;;;;;9.93;6.45;;;;;;;29.25;47.35;101241.84;5006293;28;20093;-71
2022/08/04 05:52:05;;;;;;;11.88;6.60;;;;;;;29.38;47.44;101239.94;4992618;28;20027;-70
2022/08/04 05:54:32;;;;;;;11.07;5.90;;;;;;;29.51;46.88;101236.03;4992468;28;20097;-71
2022/08/04 05:56:59;;;;;;;16.63;7.22;;;;;;;29.60;47.06;101239.53;4992521;28;20049;-71
2022/08/04 05:59:26;;;;;;;11.50;6.70;;;;;;;29.73;46.61;101240.38;4992405;28;20518;-70
2022/08/04 06:01:57;;;;;;;14.30;6.68;;;;;;;29.80;46.15;101233.09;4992560;28;20506;-72
2022/08/04 06:04:51;;;;;;;11.27;5.75;;;;;;;29.89;46.38;101228.28;4997314;28;20041;-72
2022/08/04 06:07:17;;;;;;;10.00;6.05;;;;;;;30.02;45.82;101235.44;5001350;28;20054;-71
2022/08/04 06:09:43;;;;;;;15.50;6.90;;;;;;;30.10;45.89;101233.72;4991875;28;20113;-69
2022/08/04 06:12:19;;;;;;;15.60;5.80;;;;;;;30.17;45.88;101229.19;4991882;28;20498;-71
2022/08/04 06:14:49;;;;;;;13.32;6.78;;;;;;;30.22;44.79;101237.28;4990739;28;20065;-70
2022/08/04 06:17:24;;;;;;;13.15;5.78;;;;;;;30.39;44.92;101229.91;4991808;28;20123;-73
2022/08/04 06:19:52;;;;;;;8.85;4.82;;;;;;;30.45;44.51;101221.00;4991991;28;20441;-71
2022/08/04 06:22:20;;;;;;;10.90;4.80;;;;;;;30.54;44.58;101221.69;4991169;28;20679;-71
2022/08/04 06:24:48;;;;;;;8.93;4.35;;;;;;;30.68;44.66;101216.56;4991632;28;20070;-72
2022/08/04 06:27:15;;;;;;;11.25;4.90;;;;;;;30.77;44.44;101221.97;4989991;28;20045;-72
2022/08/04 06:29:42;;;;;;;9.48;4.57;;;;;;;30.68;44.17;101229.63;4999724;28;20482;-71
2022/08/04 06:32:13;;;;;;;7.13;4.95;;;;;;;30.70;43.91;101221.75;5011412;28;20029;-71
2022/08/04 06:34:40;;;;;;;7.72;4.13;;;;;;;30.77;43.17;101227.50;5011464;28;20026;-72
2022/08/04 06:37:07;;;;;;;8.50;4.22;;;;;;;30.88;42.78;101220.34;5011046;28;20042;-71
2022/08/04 06:39:34;;;;;;;11.23;3.72;;;;;;;30.94;42.83;101227.25;4996254;28;20054;-68
2022/08/04 06:42:00;;;;;;;10.95;4.25;;;;;;;31.05;42.52;101228.38;4991500;28;20100;-68
2022/08/04 06:44:27;;;;;;;8.38;3.80;;;;;;;31.12;42.02;101226.59;4991466;28;20034;-67
2022/08/04 06:46:54;;;;;;;8.90;3.38;;;;;;;31.23;41.42;101224.13;4990646;28;20045;-69
2022/08/04 06:49:21;;;;;;;8.63;3.70;;;;;;;31.28;41.72;101229.41;4999728;28;20131;-69
2022/08/04 06:51:48;;;;;;;14.07;3.40;;;;;;;31.36;41.51;101224.88;5010840;28;20038;-69
2022/08/04 06:54:13;;;;;;;12.35;3.72;;;;;;;31.41;40.99;101230.22;5010913;28;20061;-69
2022/08/04 06:56:42;;;;;;;13.27;3.60;;;;;;;31.47;40.91;101228.78;5010859;28;20513;-68
2022/08/04 06:59:09;;;;;;;6.80;3.15;;;;;;;31.55;40.09;101225.81;5010921;28;20034;-69
2022/08/04 07:01:36;;;;;;;7.75;3.72;;;;;;;31.49;40.47;101220.91;5011182;28;20080;-69
2022/08/04 07:04:02;;;;;;;11.10;3.47;;;;;;;31.73;39.80;101227.09;5010584;28;20096;-69
2022/08/04 07:06:28;;;;;;;11.02;3.67;;;;;;;31.87;39.92;101212.75;5010683;28;20635;-69
2022/08/04 07:08:55;;;;;;;11.77;3.20;;;;;;;31.95;39.49;101207.03;5007524;28;20081;-69
2022/08/04 07:11:21;;;;;;;9.93;3.50;;;;;;;32.07;39.41;101210.88;5009990;28;20692;-69
2022/08/04 07:13:48;;;;;;;11.38;3.25;;;;;;;32.12;38.50;101219.75;5008086;28;20026;-68
2022/08/04 07:16:14;;;;;;;9.52;3.67;;;;;;;32.20;38.94;101215.97;5007139;28;20053;-68
2022/08/04 07:18:40;;;;;;;8.13;3.10;;;;;;;32.14;38.65;101214.63;4992092;28;20037;-69
2022/08/04 07:21:06;;;;;;;15.63;2.90;;;;;;;32.28;39.23;101214.97;4976876;28;20146;-67
2022/08/04 07:23:32;;;;;;;8.88;3.17;;;;;;;32.48;38.60;101215.84;4977983;28;20088;-68
2022/08/04 07:25:57;;;;;;;8.15;3.03;;;;;;;32.56;37.84;101212.88;4978592;28;20042;-69
2022/08/04 07:28:28;;;;;;;7.35;3.50;;;;;;;32.54;38.38;101219.97;4981771;28;20049;-68
2022/08/04 07:30:55;;;;;;;11.07;2.88;;;;;;;32.59;38.17;101214.91;4979433;28;20309;-68
2022/08/04 07:33:21;;;;;;;12.05;3.60;;;;;;;32.65;38.43;101219.03;4978814;28;20030;-68
2022/08/04 07:35:50;;;;;;;14.30;3.50;;;;;;;32.66;38.58;101231.78;4986738;28;20066;-69
2022/08/04 07:38:16;;;;;;;10.27;2.88;;;;;;;32.82;38.95;101234.50;4981623;28;20053;-69
2022/08/04 07:40:42;;;;;;;14.27;3.95;;;;;;;32.94;39.33;101241.91;4983852;28;20026;-68
2022/08/04 07:43:08;;;;;;;7.47;3.25;;;;;;;32.74;39.98;101241.91;4996340;28;20092;-69
2022/08/04 07:45:34;;;;;;;10.90;4.15;;;;;;;32.67;39.70;101235.34;4987922;28;20033;-67
2022/08/04 07:48:02;;;;;;;10.60;4.00;;;;;;;32.54;39.65;101234.69;4993175;28;20049;-69
2022/08/04 07:50:28;;;;;;;9.88;4.45;;;;;;;32.54;40.12;101233.88;4978098;28;20034;-68
2022/08/04 07:52:53;;;;;;;13.52;4.57;;;;;;;32.15;41.43;101232.94;4991062;28;20397;-67
2022/08/04 07:55:20;;;;;;;14.85;4.35;;;;;;;32.55;40.94;101244.63;4979330;28;20018;-66
2022/08/04 07:57:46;;;;;;;14.50;5.30;;;;;;;32.39;40.75;101238.28;4983954;28;20043;-67
2022/08/04 08:00:13;;;;;;;16.02;5.63;;;;;;;31.97;41.22;101240.03;4993785;28;20046;-66
2022/08/04 08:02:40;;;;;;;11.40;5.65;;;;;;;31.59;43.29;101237.84;5006920;28;20030;-66
2022/08/04 08:05:12;;;;;;;15.35;6.18;;;;;;;31.45;43.36;101242.22;5008790;28;20041;-68
2022/08/04 08:07:38;;;;;;;11.00;5.63;;;;;;;31.55;41.69;101245.28;5009407;28;20057;-68
2022/08/04 08:10:04;;;;;;;10.25;4.88;;;;;;;32.19;40.95;101246.94;5007928;28;20540;-67
2022/08/04 08:12:32;;;;;;;10.48;4.63;;;;;;;32.40;40.62;101262.16;5009091;28;20092;-67
2022/08/04 08:14:58;;;;;;;13.35;5.43;;;;;;;32.06;41.62;101259.34;4989714;28;20084;-67
2022/08/04 08:17:24;;;;;;;10.75;4.95;;;;;;;32.64;41.16;101252.78;5007583;28;20042;-67
2022/08/04 08:19:50;;;;;;;8.55;5.63;;;;;;;32.60;41.06;101255.50;5006892;28;20441;-69
2022/08/04 08:22:15;;;;;;;10.18;5.68;;;;;;;32.21;41.98;101250.97;5008856;28;20036;-68
2022/08/04 08:24:40;;;;;;;15.75;6.03;;;;;;;31.72;43.69;101247.72;5008597;28;20034;-68
2022/08/04 08:27:06;;;;;;;12.60;5.13;;;;;;;32.38;42.52;101241.41;5008579;28;20216;-69
2022/08/04 08:29:36;;;;;;;12.20;5.78;;;;;;;32.48;42.12;101238.91;5007030;28;20038;-68
2022/08/04 08:32:03;;;;;;;17.48;5.40;;;;;;;32.30;42.69;101240.44;5008639;28;20465;-69
2022/08/04 08:34:31;;;;;;;12.48;5.40;;;;;;;31.87;43.27;101243.31;5008907;28;20042;-68
2022/08/04 08:37:18;;;;;;;8.85;5.43;;;;;;;31.80;43.11;101251.50;5005812;28;20125;-67
2022/08/04 08:40:11;;;;;;;11.02;5.55;;;;;;;31.87;42.70;101248.88;5006465;28;20504;-68
2022/08/04 08:43:18;;;;;;;8.43;5.07;;;;;;;31.92;42.31;101249.44;5006442;28;20276;-68
2022/08/04 08:46:16;;;;;;;14.05;5.85;;;;;;;32.41;41.85;101243.50;4984803;28;20477;-68
2022/08/04 08:48:47;;;;;;;11.05;5.05;;;;;;;32.37;41.64;101243.41;4980983;28;20065;-67
2022/08/04 08:51:36;;;;;;;11.38;4.90;;;;;;;32.00;43.01;101247.66;4983936;28;20033;-68
2022/08/04 08:54:33;;;;;;;14.07;4.90;;;;;;;32.82;42.12;101252.03;4982703;28;20038;-68
2022/08/04 08:57:33;;;;;;;14.35;4.97;;;;;;;32.22;41.45;101255.34;4929594;28;20123;-67
2022/08/04 09:00:20;;;;;;;13.80;5.32;;;;;;;32.61;41.37;101254.31;4919281;29;20042;-68
2022/08/04 09:03:29;;;;;;;8.05;4.28;;;;;;;31.56;43.10;101257.19;4919536;29;20068;-69
2022/08/04 09:06:02;;;;;;;11.67;4.73;;;;;;;32.00;42.43;101264.34;4881439;29;20471;-69
2022/08/04 09:08:36;;;;;;;10.40;4.20;;;;;;;31.61;44.34;101263.31;4882238;29;20480;-67
2022/08/04 09:11:07;;;;;;;12.52;4.20;;;;;;;31.54;44.69;101267.88;4882075;29;20052;-68
2022/08/04 09:13:40;;;;;;;7.63;3.88;;;;;;;31.64;44.74;101272.91;4882020;29;20136;-66
2022/08/04 09:16:30;;;;;;;10.23;4.28;;;;;;;31.00;44.68;101273.84;4879409;29;20716;-67
2022/08/04 09:19:09;;;;;;;13.38;3.30;;;;;;;30.94;43.31;101278.03;4881589;29;20049;-68
2022/08/04 09:21:48;;;;;;;6.65;2.25;;;;;;;31.34;40.94;101279.97;4881400;29;20498;-68
2022/08/04 09:24:24;;;;;;;8.90;1.92;;;;;;;31.67;40.65;101275.78;4868894;29;20076;-67
2022/08/04 09:27:00;;;;;;;8.95;1.67;;;;;;;31.52;40.86;101279.34;4875918;29;20466;-69
2022/08/04 09:30:00;;;;;;;8.73;2.03;;;;;;;31.04;41.69;101276.72;4875227;29;20041;-68
2022/08/04 09:32:26;;;;;;;4.85;1.50;;;;;;;31.04;41.12;101277.53;4888647;29;20464;-69
2022/08/04 09:35:09;;;;;;;3.55;1.55;;;;;;;31.38;40.75;101283.69;4942724;28;20163;-68
2022/08/04 09:37:47;;;;;;;7.03;1.50;;;;;;;31.16;41.48;101282.25;4943996;29;20587;-67
2022/08/04 09:40:31;;;;;;;10.35;1.95;;;;;;;31.35;41.20;101290.72;4979942;28;20133;-67
2022/08/04 09:42:59;;;;;;;8.95;1.52;;;;;;;31.96;40.91;101294.06;4977691;28;20042;-68
2022/08/04 09:45:43;;;;;;;5.25;1.85;;;;;;;31.46;40.86;101300.22;4976994;28;20459;-69
2022/08/04 09:48:16;;;;;;;6.70;1.95;;;;;;;31.02;41.42;101304.84;4975673;28;20043;-69
2022/08/04 09:50:44;;;;;;;10.65;2.40;;;;;;;32.03;39.93;101302.56;4976357;28;20031;-69
2022/08/04 09:53:34;;;;;;;6.47;1.63;;;;;;;32.12;38.57;101300.41;4977455;28;20410;-68
2022/08/04 09:56:40;;;;;;;8.65;1.58;;;;;;;31.95;39.75;101300.78;4978743;28;20370;-68
2022/08/04 09:59:22;;;;;;;6.38;1.85;;;;;;;32.18;39.48;101312.88;4980241;28;20118;-68
2022/08/04 10:01:53;;;;;;;8.23;1.95;;;;;;;31.86;39.39;101312.03;4979027;28;20019;-69
2022/08/04 10:04:20;;;;;;;5.47;1.30;;;;;;;31.15;40.80;101303.66;4990689;28;20045;-67
2022/08/04 10:07:04;;;;;;;10.68;1.70;;;;;;;31.01;41.61;101305.22;4983821;28;20030;-68
2022/08/04 10:09:42;;;;;;;5.53;1.67;;;;;;;31.80;39.96;101315.44;4979023;28;20031;-68
2022/08/04 10:12:22;;;;;;;11.65;1.98;;;;;;;31.76;40.34;101314.53;4979374;28;20038;-67
2022/08/04 10:15:14;;;;;;;9.93;2.25;;;;;;;32.04;40.82;101308.94;4979317;28;20038;-68
2022/08/04 10:17:48;;;;;;;9.75;2.38;;;;;;;31.72;41.16;101320.00;4999804;28;20034;-67
2022/08/04 10:20:27;;;;;;;5.70;1.45;;;;;;;31.53;41.49;101316.28;5009098;28;20038;-69
2022/08/04 10:23:19;;;;;;;8.47;1.70;;;;;;;31.78;40.40;101317.75;5007837;28;20049;-69
2022/08/04 10:25:56;;;;;;;5.28;1.70;;;;;;;31.98;40.75;101319.50;5010235;28;20034;-66
2022/08/04 10:28:25;;;;;;;7.65;1.85;;;;;;;31.70;41.25;101311.22;5011513;28;20045;-67
2022/08/04 10:30:56;;;;;;;4.55;2.45;;;;;;;31.79;40.32;101311.03;5004082;28;20109;-68
2022/08/04 10:33:30;;;;;;;7.45;1.75;;;;;;;31.76;39.91;101306.97;5005773;28;20034;-67
2022/08/04 10:36:10;;;;;;;7.43;1.58;;;;;;;31.38;41.36;101314.25;5002681;28;20464;-66
2022/08/04 10:38:54;;;;;;;11.98;1.98;;;;;;;31.60;39.99;101322.03;5005791;28;20034;-67
2022/08/04 10:42:13;;;;;;;6.68;1.50;;;;;;;31.96;38.54;101327.44;5008583;28;20073;-68
2022/08/04 10:45:11;;;;;;;6.70;1.92;;;;;;;31.68;38.93;101329.41;4988070;28;20130;-69
2022/08/04 10:47:53;;;;;;;7.38;1.33;;;;;;;32.76;37.00;101325.88;4943487;28;20036;-69
2022/08/04 10:50:22;;;;;;;2.55;1.13;;;;;;;32.04;38.21;101329.19;4934394;29;20215;-67
2022/08/04 10:52:56;;;;;;;3.67;1.42;;;;;;;32.96;36.95;101321.16;4950235;29;20034;-67
2022/08/04 10:55:49;;;;;;;6.30;2.03;;;;;;;32.06;37.81;101332.44;4942985;29;20043;-70
2022/08/04 10:58:20;;;;;;;3.15;1.05;;;;;;;32.58;37.34;101326.63;4947618;29;20130;-68
2022/08/04 11:00:47;;;;;;;3.20;0.85;;;;;;;32.72;36.32;101326.94;4948949;28;20086;-68
2022/08/04 11:03:33;;;;;;;3.15;1.08;;;;;;;33.34;35.74;101345.44;4949160;28;20035;-68
2022/08/04 11:06:02;;;;;;;4.68;1.27;;;;;;;31.61;37.94;101343.09;4947637;28;20039;-68
2022/08/04 11:08:35;;;;;;;3.97;0.93;;;;;;;32.61;36.77;101343.38;4948288;28;20650;-65
2022/08/04 11:11:25;;;;;;;4.47;1.42;;;;;;;32.57;35.89;101347.28;4948627;28;20055;-67
2022/08/04 11:14:11;;;;;;;1.52;0.90;;;;;;;32.06;36.78;101345.56;4947632;28;20051;-67
2022/08/04 11:16:56;;;;;;;3.67;1.10;;;;;;;31.41;37.89;101349.69;4947156;29;20062;-68
2022/08/04 11:19:37;;;;;;;10.02;1.13;;;;;;;31.86;37.13;101361.28;4941823;29;20061;-68
2022/08/04 11:22:22;;;;;;;4.38;1.40;;;;;;;32.64;35.75;101373.31;4908798;28;20485;-68
2022/08/04 11:25:13;;;;;;;3.70;1.17;;;;;;;31.92;37.13;101374.56;4979533;28;20042;-68
2022/08/04 11:28:00;;;;;;;4.50;1.05;;;;;;;32.18;36.50;101385.19;4971373;28;20031;-69
2022/08/04 11:30:35;;;;;;;4.60;1.48;;;;;;;31.95;37.27;101401.69;4981286;28;20069;-66
2022/08/04 11:33:12;;;;;;;6.97;3.17;;;;;;;32.01;36.22;101396.66;4985113;28;20547;-68
2022/08/04 11:35:46;;;;;;;4.13;1.17;;;;;;;32.03;36.58;101376.84;4981831;28;20518;-68
2022/08/04 11:38:24;;;;;;;2.88;1.48;;;;;;;31.64;36.74;101368.22;4985251;28;20081;-68
2022/08/04 11:40:57;;;;;;;3.40;1.30;;;;;;;30.97;37.98;101395.91;4985261;28;20474;-68
2022/08/04 11:43:35;;;;;;;5.00;1.92;;;;;;;31.19;37.92;101410.09;4978446;28;20107;-69
2022/08/04 11:46:07;;;;;;;3.90;1.42;;;;;;;31.14;38.37;101407.56;4958860;28;20651;-70
2022/08/04 11:48:36;;;;;;;4.15;1.58;;;;;;;31.00;38.19;101412.69;4959265;28;20498;-68
2022/08/04 11:51:04;;;;;;;6.75;1.73;;;;;;;30.63;39.14;101404.66;4960528;28;20107;-68
2022/08/04 11:53:32;;;;;;;9.90;1.75;;;;;;;30.83;38.64;101431.50;4969737;28;20076;-68
2022/08/04 11:56:02;;;;;;;8.95;1.45;;;;;;;31.24;37.85;101464.59;4969527;28;20031;-69
2022/08/04 11:58:29;;;;;;;8.50;2.00;;;;;;;31.49;39.29;101452.31;4961652;28;20034;-68
2022/08/04 12:01:16;;;;;;;10.07;2.13;;;;;;;31.34;39.97;101457.75;4958912;28;20035;-69
2022/08/04 12:04:10;;;;;;;5.22;1.52;;;;;;;30.89;41.26;101478.16;4959414;28;20161;-69
2022/08/04 12:06:44;;;;;;;6.10;1.73;;;;;;;31.08;41.70;101472.84;4959289;28;20637;-70